ADDS METAR Data INFO
IDs: Format: Raw Decoded Include TAF

Data at: 0454 UTC 21 Feb 2018

KOXV 201515Z AUTO 27013KT 3SM BR OVC009 M01/M02 A2997 RMK AO2
KOXV 201455Z AUTO 30010KT 10SM BKN007 OVC012 M02/M03 A2990 RMK AO2 P0004
KOXV 201435Z AUTO 31011KT 8SM OVC006 M01/M02 A2988 RMK AO2
KOXV 201415Z AUTO 30012G19KT 4SM -RA BKN007 OVC011 M01/M01 A2989 RMK AO2
KOXV 201355Z AUTO 29010KT 3SM BR BKN004 OVC008 M01/M01 A2989 RMK AO2 P0002
KOXV 201335Z AUTO 30007KT 3SM -RA OVC005 M01/M01 A2985 RMK AO2
KOXV 201315Z AUTO 30004KT 5SM BR OVC006 M01/M01 A2984 RMK AO2
KOXV 201255Z AUTO 29009KT 7SM OVC007 M01/M01 A2985 RMK AO2
KOXV 201235Z AUTO 30004KT 7SM OVC006 M01/M02 A2983 RMK AO2
KOXV 201215Z AUTO 31005KT 6SM BR OVC006 M01/M02 A2982 RMK AO2
KOXV 201155Z AUTO 30008KT 5SM BR OVC006 M01/M02 A2983 RMK AO2
KOXV 201135Z AUTO 29007KT 8SM OVC006 M01/M02 A2983 RMK AO2
KOXV 201115Z AUTO 30012KT 10SM BKN006 OVC012 M01/M02 A2984 RMK AO2
KOXV 201055Z AUTO 30009KT 6SM -RA BKN005 OVC009 M01/M01 A2982 RMK AO2 P0001
KOXV 201035Z AUTO 29008KT 9SM BKN005 OVC020 M01/M02 A2980 RMK AO2
KOXV 201015Z AUTO 29005KT 6SM -RA BKN005 OVC021 M01/M02 A2979 RMK AO2
KOXV 200955Z AUTO 29006KT 6SM -RA BKN006 OVC026 M01/M02 A2980 RMK AO2 P0005
KOXV 200935Z AUTO 26006KT 6SM -RA BKN006 BKN036 OVC070 M01/M02 A2980 RMK AO2
KOXV 200915Z AUTO 00000KT 9SM BKN006 BKN046 OVC095 M01/M02 A2979 RMK AO2
KOXV 200855Z AUTO 29005G15KT 2SM +RA OVC004 M01/M01 A2980 RMK AO2 P0010
KOXV 200835Z AUTO 29010KT 1 1/4SM -RA OVC004 M01/M01 A2981 RMK AO2
KOXV 200815Z AUTO 29011KT 2 1/2SM BR OVC004 M01/M02 A2981 RMK AO2
KOXV 200755Z AUTO 31004KT 4SM BR OVC004 M01/M02 A2978 RMK AO2
KOXV 200735Z AUTO 28003KT 5SM BR OVC004 M02/M02 A2977 RMK AO2
KOXV 200715Z AUTO 00000KT 6SM OVC004 M01/M02 A2978 RMK AO2
KOXV 200655Z AUTO 00000KT 8SM OVC005 M02/M02 A2978 RMK AO2 P0001
KOXV 200635Z AUTO 00000KT 7SM OVC005 M02/M02 A2979 RMK AO2
KOXV 200615Z AUTO 00000KT 7SM -RA OVC004 M02/M02 A2981 RMK AO2
KOXV 200555Z AUTO 00000KT 4SM +RA OVC004 M02/M02 A2979 RMK AO2 P0003
KOXV 200535Z AUTO 31004KT 6SM BR OVC004 M02/M02 A2981 RMK AO2
KOXV 200515Z AUTO 33004KT 7SM OVC004 M02/M02 A2981 RMK AO2
KOXV 200455Z AUTO 32008KT 6SM BR OVC004 M02/M02 A2980 RMK AO2
KOXV 200435Z AUTO 31009KT 7SM OVC004 M02/M02 A2981 RMK AO2
KOXV 200415Z AUTO 29009KT 3SM BR OVC004 M02/M01 A2981 RMK AO2
KOXV 200355Z AUTO 31007KT 5SM BR OVC004 M01/M01 A2982 RMK AO2
KOXV 200335Z AUTO 30009KT 4SM BR OVC004 M01/M01 A2982 RMK AO2
KOXV 200315Z AUTO 29009KT 1 3/4SM BR OVC003 M01/M01 A2981 RMK AO2
KOXV 200255Z AUTO 29010KT 1SM BR OVC003 M01/M01 A2981 RMK AO2
KOXV 200235Z AUTO 29008KT 1 3/4SM BR OVC003 M01/M01 A2980 RMK AO2
KOXV 200215Z AUTO 29011KT 1SM BR OVC003 M01/M01 A2980 RMK AO2
KOXV 200155Z AUTO 28009KT 3/4SM BR OVC003 M01/M01 A2980 RMK AO2
KOXV 200135Z AUTO 29010KT 1/2SM BR OVC003 M01/M00 A2979 RMK AO2
KOXV 200115Z AUTO 27011KT 3/4SM BR OVC003 M00/M00 A2980 RMK AO2
KOXV 200055Z AUTO 28007KT 1SM BR OVC003 M00/M00 A2978 RMK AO2
KOXV 200035Z AUTO 28007KT 2 1/2SM BR OVC003 00/00 A2978 RMK AO2
KOXV 200015Z AUTO 28009KT 6SM BR OVC004 00/00 A2978 RMK AO2
KOXV 192355Z AUTO 29010KT 7SM OVC004 01/01 A2976 RMK AO2
KOXV 192335Z AUTO 28011KT 7SM OVC004 01/01 A2976 RMK AO2
KOXV 192315Z AUTO 28011KT 7SM OVC004 01/01 A2975 RMK AO2
KOXV 192255Z AUTO 28011KT 3SM BR OVC004 01/01 A2974 RMK AO2
KOXV 192235Z AUTO 28010G15KT 2 1/2SM BR OVC003 02/02 A2972 RMK AO2
KOXV 192215Z AUTO 28011KT 1SM BR OVC003 02/02 A2973 RMK AO2
KOXV 192155Z AUTO 28011KT 1SM BR OVC003 02/02 A2972 RMK AO2
KOXV 192135Z AUTO 29010G16KT 1 1/4SM BR OVC003 02/02 A2970 RMK AO2
KOXV 192115Z AUTO 29014KT 3/4SM BR OVC003 03/03 A2970 RMK AO2
KOXV 192055Z AUTO 30014KT 1 1/2SM BR OVC003 03/03 A2969 RMK AO2
KOXV 192035Z AUTO 29013KT 1SM BR OVC003 03/03 A2969 RMK AO2
KOXV 192015Z AUTO 27012KT 1/2SM BR OVC003 03/03 A2968 RMK AO2
KOXV 191955Z AUTO 28011KT 1/2SM FG OVC003 04/04 A2967 RMK AO2
KOXV 191935Z AUTO 29011KT 1/4SM FG OVC003 04/04 A2966 RMK AO2
KOXV 191915Z AUTO 29014KT 1/2SM FG OVC003 03/03 A2966 RMK AO2
KOXV 191855Z AUTO 30014KT 1/2SM -RA OVC003 03/03 A2965 RMK AO2 P0001
KOXV 191835Z AUTO 29017KT 1/4SM FG OVC003 04/04 A2965 RMK AO2
KOXV 191815Z AUTO 30014KT 1/4SM FG OVC003 06/06 A2964 RMK AO2
KOXV 191755Z AUTO 29007KT 1/4SM FG OVC003 08/08 A2964 RMK AO2
KOXV 191735Z AUTO 00000KT 1/2SM FG OVC003 08/08 A2963 RMK AO2
KOXV 191715Z AUTO 33004KT 1/2SM BR OVC003 08/08 A2964 RMK AO2
KOXV 191655Z AUTO 35005KT 1 3/4SM BR OVC003 08/08 A2964 RMK AO2